울란바타르, Mongolia

8:56 PM ULAT on January 17, 2017 (GMT +0800)
Buyant-Ukhaa | | Change Station

Elev 4364 ft 47.84 °N, 106.77 °E | Updated -221 second ago

엷은 안개
엷은 안개
-24 °F
Feels Like -24 °F
N
0
바람 Variable 바람 from

오늘
High -- | Low -- °F
--% Chance of Precip.
어제
High -- | Low -- °F
Precip. -- 인치
기압 30.24 인치
가시도 3.1 마일
구름
이슬점 -31 °F
습도 69%
Rainfall 0.33 인치
Snow Depth Not available.
8:35 AM 5:29 PM
하현망간의 달, 73% visible
METAR ZMUB 171300Z 00000MPS 5000NW FU NSC M31/M35 Q1024 NOSIG RMK QFE660.1 68 NT
기압 30.24 인치
가시도 3.1 마일
구름
이슬점 -31 °F
습도 69%
Rainfall 0.33 인치
Snow Depth Not available.
8:35 AM 5:29 PM
하현망간의 달, 73% visible
METAR ZMUB 171300Z 00000MPS 5000NW FU NSC M31/M35 Q1024 NOSIG RMK QFE660.1 68 NT

Get Your Daily Forecast Email!

Thanks for signing up!

Be on the lookout for a verification email in your inbox.

You'll start receiving the daily forecast at 8 AM.

×

10-Day Weather Forecast

No radar image for this location.
×

Almanac

천문

Jan. 17, 2017 Rise Set
Actual Time
Civil Twilight
Nautical Twilight
Astronomical Twilight
Moon
Length Of Visible Light
낮 길이
Tomorrow will be .
, % of the Moon is Illuminated

Today's Extremes

Country Highs Country Lows

Community

WunderPhotos

Upload Photos

1,962,540 photos uploaded!

WunderBlog® & News

Nearby

에어 품질

  에어 품질 AQ Index Pollutant
Not available.

Snow Depth

Station Depth Elevation

Earthquake Activity

City Distance Mag. Time & Date
Minimum magnitude displayed is 2.5.

Coastal Water Temperatures

장소 기온

Stations

Nearby Weather Stations

Station Location Temp 풍속냉각지수 이슬점 습도 바람 Precip. Elev 업데이트 시각 Type